Ευχαριστούμε που συμβάλλετε στη διατήρηση της σελίδας μας.

Thank you for your donations, it really helps to maintain the page.


Στατιστικά Καιρού & Άλλα..









Δείκτης Πυρκαγιάς (FWI)

Καστελόκαμπος Ρίον more information Kastelokampos Rion


Κάμερα Ρομανού more information Romanos Cam


Ραντάρ Κεραυνών more information blitzortung!


Ραντάρ Βροχής more information rain snow radar


Επισκεφθείτε άλλες ιστοσελίδες καιρού μας:

Meteopatras.Eu in
Euweather NetworkMeteopatras.Eu in Euweather Network

Weather CloudWeather Cloud

PWS WeatherPWS Weather

Awekas NetWeather data from station Patra-Ketx

WunderGroundWeather data from station Patra-Ketx




Ιδιοκτησία και Επίβλεψη : Μουλάς Αντρέας

 Πάτρα, Ελλάδα - Γ.Πλάτος : 38°14'21" Β - Γ.Μήκος : 21°45'5" Α - Υψόμετρο : 56μ

Select another period ( hide this area )

Μονάδες Περίοδο Custom range Directly to
Μετρικό Αγγλικό Και τα δύο
Καθημερινά Εβδομαδιαία Μηνιαία Ετήσια
use both date-selectors for a custom range
previous Ημέρα
With this date

WeatherUnderground graphs for this period ( click here )


Καθημερινά Περίληψη για Κυριακή 21 Απρίλιος 2019
Ώρα Temp. ( °C ) Dew pt. ( °C ) Άνεμος ( km/h ) απο Ριπή ( km/h ) Πίεση ( hPa ) Humid.( % ) Rainrate ( cm ) Solar ( W/m2 )
Υψηλή18,6 11,8 12,9 ΔΒΔ ( 78/317 ) 18,5 1023,6 73 - 837
Μέση Τιμή17,5 10,0 5,5 ΝΔ #13/58 10,2 1022,9 62 - 459 #58/58
Χαμηλή16,6 7,3 1,4   5,6 1021,9 50 -  
Καθημερινά Tabular details for Κυριακή 21 Απρίλιος 2019
Ώρα Temp. ( °C ) Dew pt. ( °C ) Άνεμος ( km/h ) απο Ριπή ( km/h ) Πίεση ( hPa ) Humid.( % ) Rainrate ( cm ) Solar ( W/m2 )
14:04 17,9 7,3 3,5 ΝΔ 7,4 1023,6 50 - 833
14:09 17,9 7,4 6,0 ΒΔ 18,5 1023,6 50 - 837
14:14 17,9 7,6 9,7 ΔΒΔ 14,8 1023,6 51 - 835
14:19 18,0 7,7 8,8 ΔΒΔ 16,7 1023,6 51 - 830
14:24 17,8 7,6 4,8 Δύση 9,7 1023,6 51 - 835
14:49 17,6 7,3 9,3 ΒΔ 9,3 1023,6 51 - 802
14:54 17,7 7,7 2,4 Δύση 9,7 1023,5 52 - 798
14:59 18,0 7,7 8,0 ΒΔ 14,8 1023,6 51 - 789
15:04 17,9 7,7 9,7 ΔΒΔ 17,7 1023,5 51 - 758
15:09 17,6 7,6 9,0 ΔΒΔ 16,1 1023,5 52 - 805
15:14 17,4 8,1 8,7 ΒΔ 14,8 1023,5 54 - 786
15:19 17,3 8,2 5,3 Δύση 11,3 1023,5 55 - 765
15:24 17,5 8,3 6,4 Δύση 11,1 1023,4 55 - 752
15:29 17,4 8,3 3,5 ΝΔ 11,1 1023,4 55 - 749
15:34 17,5 8,6 3,9 ΝΝΑ 13,0 1023,3 56 - 742
15:39 17,8 8,9 2,7 ΔΝΔ 5,6 1023,4 56 - 731
15:44 18,1 8,9 2,9 ΔΝΔ 6,4 1023,2 55 - 722
15:49 18,2 9,0 2,3 ΒΒΑ 5,6 1023,2 55 - 708
15:54 18,4 8,9 5,6 ΔΒΔ 9,3 1023,2 54 - 705
15:59 18,3 9,1 4,0 ΝΝΔ 13,0 1023,1 55 - 694
16:04 18,4 9,2 4,3 ΝΔ 9,3 1023,0 55 - 686
16:09 18,4 9,2 5,3 ΝΝΔ 7,4 1022,9 55 - 677
16:14 18,6 9,3 2,9 ΝΔ 5,6 1022,9 55 - 668
16:19 18,4 9,2 5,1 ΔΝΔ 11,1 1022,9 55 - 650
16:24 18,3 9,7 5,5 ΝΔ 9,3 1022,9 57 - 645
16:29 18,2 10,1 3,7 ΝΔ 5,6 1022,9 59 - 626
16:34 18,2 10,8 10,3 ΔΝΔ 14,8 1022,9 62 - 617
16:39 18,1 10,7 3,2 ΔΝΔ 5,6 1022,9 62 - 608
16:44 18,2 11,0 7,7 ΔΝΔ 13,0 1022,9 63 - 610
16:49 17,9 11,1 5,6 ΔΝΔ 9,3 1022,8 64 - 601
16:54 17,9 11,0 5,1 ΔΒΔ 9,3 1022,8 64 - 431
16:59 18,0 11,1 6,1 ΝΔ 11,1 1022,8 64 - 461
17:04 17,9 11,2 9,0 ΝΝΔ 14,5 1022,9 65 - 309
17:09 17,6 11,2 5,1 ΔΝΔ 16,7 1022,9 66 - 267
17:14 17,4 11,2 12,9 ΒΔ 18,5 1022,9 67 - 265
17:19 17,2 11,4 10,8 ΔΒΔ 16,7 1022,8 69 - 202
17:24 16,9 11,2 8,7 ΝΔ 13,0 1022,8 69 - 146
17:29 16,8 11,5 4,3 ΔΝΔ 7,4 1022,7 71 - 141
17:34 16,8 11,5 1,4 Δύση 5,6 1022,7 71 - 149
17:39 16,8 11,5 6,3 ΔΒΔ 11,1 1022,7 71 - 148
17:44 16,7 11,7 5,0 ΔΒΔ 9,3 1022,7 72 - 148
17:49 16,8 11,7 4,0 Δύση 5,6 1022,7 72 - 118
17:54 16,7 11,8 5,8 ΝΔ 11,1 1022,7 73 - 132
17:59 16,7 11,8 3,2 ΔΝΔ 14,8 1022,7 73 - 188
18:04 16,7 11,8 6,6 ΝΔ 9,3 1022,6 73 - 193
18:09 16,7 11,6 3,7 ΔΝΔ 5,6 1022,5 72 - 190
18:14 16,7 11,7 5,3 ΔΒΔ 11,1 1022,5 72 - 153
18:19 16,7 11,6 5,6 ΒΔ 9,3 1022,4 72 - 116
18:24 16,6 11,6 2,3 ΒΔ 7,4 1022,4 72 - 118
18:29 16,6 11,6 2,6 ΝΔ 5,6 1022,3 72 - 127
18:34 16,7 11,4 3,4 ΔΝΔ 5,6 1022,3 71 - 113
18:39 16,7 11,0 1,9 Δύση 5,6 1022,2 69 - 116
18:44 16,7 10,8 6,0 ΝΝΔ 8,0 1022,2 68 - 98
18:49 16,7 10,9 3,1 ΔΝΔ 5,6 1022,2 69 - 107
18:54 16,7 10,9 5,5 ΝΔ 6,4 1022,0 69 - 86
18:59 16,6 11,1 4,0 ΝΔ 5,6 1022,0 70 - 76
19:04 16,6 10,9 2,4 ΔΒΔ 5,6 1022,0 69 - 70
19:09 16,6 10,9 7,1 Νότος 11,1 1021,9 69 - 63
Καθημερινά Περίληψη για Κυριακή 21 Απρίλιος 2019
Ώρα Temp. ( °C ) Dew pt. ( °C ) Άνεμος ( km/h ) απο Ριπή ( km/h ) Πίεση ( hPa ) Humid.( % ) Rainrate ( cm ) Solar ( W/m2 )
Υψηλή18,6 11,8 12,9 ΔΒΔ ( 78/317 ) 18,5 1023,6 73 - 837
Μέση Τιμή17,5 10,0 5,5 ΝΔ #13/58 10,2 1022,9 62 - 459 #58/58
Χαμηλή16,6 7,3 1,4   5,6 1021,9 50 -  
Καθημερινά Tabular details for Κυριακή 21 Απρίλιος 2019
Ώρα Temp. ( °C ) Dew pt. ( °C ) Άνεμος ( km/h ) απο Ριπή ( km/h ) Πίεση ( hPa ) Humid.( % ) Rainrate ( cm ) Solar ( W/m2 )
14:04 17,9 7,3 3,5 ΝΔ 7,4 1023,6 50 - 833
14:09 17,9 7,4 6,0 ΒΔ 18,5 1023,6 50 - 837
14:14 17,9 7,6 9,7 ΔΒΔ 14,8 1023,6 51 - 835
14:19 18,0 7,7 8,8 ΔΒΔ 16,7 1023,6 51 - 830
14:24 17,8 7,6 4,8 Δύση 9,7 1023,6 51 - 835
14:49 17,6 7,3 9,3 ΒΔ 9,3 1023,6 51 - 802
14:54 17,7 7,7 2,4 Δύση 9,7 1023,5 52 - 798
14:59 18,0 7,7 8,0 ΒΔ 14,8 1023,6 51 - 789
15:04 17,9 7,7 9,7 ΔΒΔ 17,7 1023,5 51 - 758
15:09 17,6 7,6 9,0 ΔΒΔ 16,1 1023,5 52 - 805
15:14 17,4 8,1 8,7 ΒΔ 14,8 1023,5 54 - 786
15:19 17,3 8,2 5,3 Δύση 11,3 1023,5 55 - 765
15:24 17,5 8,3 6,4 Δύση 11,1 1023,4 55 - 752
15:29 17,4 8,3 3,5 ΝΔ 11,1 1023,4 55 - 749
15:34 17,5 8,6 3,9 ΝΝΑ 13,0 1023,3 56 - 742
15:39 17,8 8,9 2,7 ΔΝΔ 5,6 1023,4 56 - 731
15:44 18,1 8,9 2,9 ΔΝΔ 6,4 1023,2 55 - 722
15:49 18,2 9,0 2,3 ΒΒΑ 5,6 1023,2 55 - 708
15:54 18,4 8,9 5,6 ΔΒΔ 9,3 1023,2 54 - 705
15:59 18,3 9,1 4,0 ΝΝΔ 13,0 1023,1 55 - 694
16:04 18,4 9,2 4,3 ΝΔ 9,3 1023,0 55 - 686
16:09 18,4 9,2 5,3 ΝΝΔ 7,4 1022,9 55 - 677
16:14 18,6 9,3 2,9 ΝΔ 5,6 1022,9 55 - 668
16:19 18,4 9,2 5,1 ΔΝΔ 11,1 1022,9 55 - 650
16:24 18,3 9,7 5,5 ΝΔ 9,3 1022,9 57 - 645
16:29 18,2 10,1 3,7 ΝΔ 5,6 1022,9 59 - 626
16:34 18,2 10,8 10,3 ΔΝΔ 14,8 1022,9 62 - 617
16:39 18,1 10,7 3,2 ΔΝΔ 5,6 1022,9 62 - 608
16:44 18,2 11,0 7,7 ΔΝΔ 13,0 1022,9 63 - 610
16:49 17,9 11,1 5,6 ΔΝΔ 9,3 1022,8 64 - 601
16:54 17,9 11,0 5,1 ΔΒΔ 9,3 1022,8 64 - 431
16:59 18,0 11,1 6,1 ΝΔ 11,1 1022,8 64 - 461
17:04 17,9 11,2 9,0 ΝΝΔ 14,5 1022,9 65 - 309
17:09 17,6 11,2 5,1 ΔΝΔ 16,7 1022,9 66 - 267
17:14 17,4 11,2 12,9 ΒΔ 18,5 1022,9 67 - 265
17:19 17,2 11,4 10,8 ΔΒΔ 16,7 1022,8 69 - 202
17:24 16,9 11,2 8,7 ΝΔ 13,0 1022,8 69 - 146
17:29 16,8 11,5 4,3 ΔΝΔ 7,4 1022,7 71 - 141
17:34 16,8 11,5 1,4 Δύση 5,6 1022,7 71 - 149
17:39 16,8 11,5 6,3 ΔΒΔ 11,1 1022,7 71 - 148
17:44 16,7 11,7 5,0 ΔΒΔ 9,3 1022,7 72 - 148
17:49 16,8 11,7 4,0 Δύση 5,6 1022,7 72 - 118
17:54 16,7 11,8 5,8 ΝΔ 11,1 1022,7 73 - 132
17:59 16,7 11,8 3,2 ΔΝΔ 14,8 1022,7 73 - 188
18:04 16,7 11,8 6,6 ΝΔ 9,3 1022,6 73 - 193
18:09 16,7 11,6 3,7 ΔΝΔ 5,6 1022,5 72 - 190
18:14 16,7 11,7 5,3 ΔΒΔ 11,1 1022,5 72 - 153
18:19 16,7 11,6 5,6 ΒΔ 9,3 1022,4 72 - 116
18:24 16,6 11,6 2,3 ΒΔ 7,4 1022,4 72 - 118
18:29 16,6 11,6 2,6 ΝΔ 5,6 1022,3 72 - 127
18:34 16,7 11,4 3,4 ΔΝΔ 5,6 1022,3 71 - 113
18:39 16,7 11,0 1,9 Δύση 5,6 1022,2 69 - 116
18:44 16,7 10,8 6,0 ΝΝΔ 8,0 1022,2 68 - 98
18:49 16,7 10,9 3,1 ΔΝΔ 5,6 1022,2 69 - 107
18:54 16,7 10,9 5,5 ΝΔ 6,4 1022,0 69 - 86
18:59 16,6 11,1 4,0 ΝΔ 5,6 1022,0 70 - 76
19:04 16,6 10,9 2,4 ΔΒΔ 5,6 1022,0 69 - 70
19:09 16,6 10,9 7,1 Νότος 11,1 1021,9 69 - 63

Download your copy of this data-set  here

Our weather-data as stored at Weather Underground. Script developed by Jim McMurry. Προσαρμοσμένος για το πρότυπο του Leuven-Template.eu

Μπορείτε να βρείτε πληροφορίες καιρού μας και σε:

European Weather Network

WeatherCloud

Weather Underground

Δύκτιο Σταθμών Ελλάδας

AWEKAS

HAMweather, WeatherForYou, PWS Weather

MeteoPatras.Eu